sensor_id;sensor_type;location;lat;lon;timestamp;pressure;altitude;pressure_sealevel;temperature;humidity
67545;BME280;54380;47.770;11.150;2023-07-13T00:01:29;94844.50;;;20.45;63.21
67545;BME280;54380;47.770;11.150;2023-07-13T00:03:57;94836.47;;;20.53;62.57
67545;BME280;54380;47.770;11.150;2023-07-13T00:06:24;94836.06;;;20.60;62.28
67545;BME280;54380;47.770;11.150;2023-07-13T00:08:51;94841.25;;;20.65;62.15
67545;BME280;54380;47.770;11.150;2023-07-13T00:11:17;94832.72;;;20.72;61.89
67545;BME280;54380;47.770;11.150;2023-07-13T00:13:44;94829.25;;;20.80;61.89
67545;BME280;54380;47.770;11.150;2023-07-13T00:16:11;94824.22;;;20.78;61.52
67545;BME280;54380;47.770;11.150;2023-07-13T00:18:40;94823.25;;;20.74;61.44
67545;BME280;54380;47.770;11.150;2023-07-13T00:21:08;94830.22;;;20.75;61.19
67545;BME280;54380;47.770;11.150;2023-07-13T00:23:37;94826.44;;;20.76;61.36
67545;BME280;54380;47.770;11.150;2023-07-13T00:26:05;94825.50;;;20.81;61.23
67545;BME280;54380;47.770;11.150;2023-07-13T00:28:32;94830.69;;;20.86;61.09
67545;BME280;54380;47.770;11.150;2023-07-13T00:30:59;94836.53;;;20.88;60.91
67545;BME280;54380;47.770;11.150;2023-07-13T00:33:26;94832.44;;;20.91;60.68
67545;BME280;54380;47.770;11.150;2023-07-13T00:35:53;94837.16;;;20.94;60.59
67545;BME280;54380;47.770;11.150;2023-07-13T00:38:22;94832.72;;;20.98;60.61
67545;BME280;54380;47.770;11.150;2023-07-13T00:40:49;94830.22;;;21.01;61.27
67545;BME280;54380;47.770;11.150;2023-07-13T00:43:17;94834.31;;;20.99;61.54
67545;BME280;54380;47.770;11.150;2023-07-13T00:48:31;94821.84;;;20.77;62.12
67545;BME280;54380;47.770;11.150;2023-07-13T00:50:59;94827.69;;;20.70;61.33
67545;BME280;54380;47.770;11.150;2023-07-13T00:53:29;94829.41;;;20.66;61.44
67545;BME280;54380;47.770;11.150;2023-07-13T00:55:56;94824.38;;;20.65;61.60
67545;BME280;54380;47.770;11.150;2023-07-13T00:58:23;94831.78;;;20.68;61.18
67545;BME280;54380;47.770;11.150;2023-07-13T01:00:50;94825.50;;;20.72;61.22
67545;BME280;54380;47.770;11.150;2023-07-13T01:03:17;94833.38;;;20.77;60.88
67545;BME280;54380;47.770;11.150;2023-07-13T01:05:44;94827.38;;;20.80;60.86
67545;BME280;54380;47.770;11.150;2023-07-13T01:08:13;94822.03;;;20.80;60.55
67545;BME280;54380;47.770;11.150;2023-07-13T01:10:42;94824.38;;;20.82;60.70
67545;BME280;54380;47.770;11.150;2023-07-13T01:13:17;94820.25;;;20.85;60.30
67545;BME280;54380;47.770;11.150;2023-07-13T01:15:44;94812.69;;;20.87;60.33
67545;BME280;54380;47.770;11.150;2023-07-13T01:18:12;94810.50;;;20.89;60.46
67545;BME280;54380;47.770;11.150;2023-07-13T01:20:39;94806.69;;;20.90;60.48
67545;BME280;54380;47.770;11.150;2023-07-13T01:23:08;94799.44;;;20.90;60.40
67545;BME280;54380;47.770;11.150;2023-07-13T01:25:36;94794.41;;;20.89;60.84
67545;BME280;54380;47.770;11.150;2023-07-13T01:28:03;94784.63;;;20.84;60.59
67545;BME280;54380;47.770;11.150;2023-07-13T01:30:30;94785.25;;;20.81;60.85
67545;BME280;54380;47.770;11.150;2023-07-13T01:33:00;94777.38;;;20.76;61.54
67545;BME280;54380;47.770;11.150;2023-07-13T01:35:27;94788.09;;;20.67;61.44
67545;BME280;54380;47.770;11.150;2023-07-13T01:37:53;94777.84;;;20.60;61.91
67545;BME280;54380;47.770;11.150;2023-07-13T01:40:21;94778.78;;;20.56;61.78
67545;BME280;54380;47.770;11.150;2023-07-13T01:42:48;94780.81;;;20.50;61.83
67545;BME280;54380;47.770;11.150;2023-07-13T01:45:15;94791.84;;;20.49;61.61
67545;BME280;54380;47.770;11.150;2023-07-13T01:47:41;94796.75;;;20.47;61.45
67545;BME280;54380;47.770;11.150;2023-07-13T01:50:08;94800.19;;;20.47;61.46
67545;BME280;54380;47.770;11.150;2023-07-13T01:52:35;94799.28;;;20.52;61.65
67545;BME280;54380;47.770;11.150;2023-07-13T01:55:02;94795.47;;;20.53;61.66
67545;BME280;54380;47.770;11.150;2023-07-13T01:57:30;94799.56;;;20.50;61.51
67545;BME280;54380;47.770;11.150;2023-07-13T01:59:56;94806.03;;;20.49;61.76
67545;BME280;54380;47.770;11.150;2023-07-13T02:02:23;94804.00;;;20.46;61.68
67545;BME280;54380;47.770;11.150;2023-07-13T02:04:50;94808.25;;;20.47;61.52
67545;BME280;54380;47.770;11.150;2023-07-13T02:07:17;94813.59;;;20.47;61.61
67545;BME280;54380;47.770;11.150;2023-07-13T02:09:44;94817.72;;;20.45;61.53
67545;BME280;54380;47.770;11.150;2023-07-13T02:12:11;94824.81;;;20.41;61.16
67545;BME280;54380;47.770;11.150;2023-07-13T02:14:39;94833.94;;;20.39;61.53
67545;BME280;54380;47.770;11.150;2023-07-13T02:17:05;94827.94;;;20.43;61.44
67545;BME280;54380;47.770;11.150;2023-07-13T02:19:32;94827.31;;;20.46;61.27
67545;BME280;54380;47.770;11.150;2023-07-13T02:21:58;94844.50;;;20.45;61.13
67545;BME280;54380;47.770;11.150;2023-07-13T02:24:25;94849.88;;;20.45;61.09
67545;BME280;54380;47.770;11.150;2023-07-13T02:26:52;94854.75;;;20.43;61.17
67545;BME280;54380;47.770;11.150;2023-07-13T02:29:19;94855.53;;;20.43;60.99
67545;BME280;54380;47.770;11.150;2023-07-13T02:31:47;94859.03;;;20.44;61.08
67545;BME280;54380;47.770;11.150;2023-07-13T02:34:14;94864.41;;;20.44;61.06
67545;BME280;54380;47.770;11.150;2023-07-13T02:36:41;94853.81;;;20.47;60.93
67545;BME280;54380;47.770;11.150;2023-07-13T02:39:08;94866.28;;;20.52;60.69
67545;BME280;54380;47.770;11.150;2023-07-13T02:41:35;94867.88;;;20.53;61.07
67545;BME280;54380;47.770;11.150;2023-07-13T02:44:02;94874.34;;;20.52;60.97
67545;BME280;54380;47.770;11.150;2023-07-13T02:46:32;94867.72;;;20.49;61.03
67545;BME280;54380;47.770;11.150;2023-07-13T02:49:01;94867.53;;;20.46;61.00
67545;BME280;54380;47.770;11.150;2023-07-13T02:51:28;94872.25;;;20.40;60.92
67545;BME280;54380;47.770;11.150;2023-07-13T02:53:55;94871.94;;;20.42;60.92
67545;BME280;54380;47.770;11.150;2023-07-13T02:56:23;94872.72;;;20.42;60.78
67545;BME280;54380;47.770;11.150;2023-07-13T02:58:50;94873.22;;;20.44;60.70
67545;BME280;54380;47.770;11.150;2023-07-13T03:01:17;94870.22;;;20.46;60.61
67545;BME280;54380;47.770;11.150;2023-07-13T03:03:45;94877.16;;;20.47;60.78
67545;BME280;54380;47.770;11.150;2023-07-13T03:06:14;94874.16;;;20.48;60.91
67545;BME280;54380;47.770;11.150;2023-07-13T03:08:46;94869.91;;;20.47;60.70
67545;BME280;54380;47.770;11.150;2023-07-13T03:11:13;94874.00;;;20.45;61.11
67545;BME280;54380;47.770;11.150;2023-07-13T03:13:42;94870.06;;;20.42;61.10
67545;BME280;54380;47.770;11.150;2023-07-13T03:16:09;94880.00;;;20.42;61.21
67545;BME280;54380;47.770;11.150;2023-07-13T03:18:37;94877.94;;;20.38;61.08
67545;BME280;54380;47.770;11.150;2023-07-13T03:21:07;94885.81;;;20.35;61.18
67545;BME280;54380;47.770;11.150;2023-07-13T03:23:35;94885.16;;;20.29;61.23
67545;BME280;54380;47.770;11.150;2023-07-13T03:26:04;94892.41;;;20.29;61.56
67545;BME280;54380;47.770;11.150;2023-07-13T03:28:32;94888.16;;;20.28;61.56
67545;BME280;54380;47.770;11.150;2023-07-13T03:31:01;94891.94;;;20.27;61.52
67545;BME280;54380;47.770;11.150;2023-07-13T03:33:29;94899.97;;;20.27;61.56
67545;BME280;54380;47.770;11.150;2023-07-13T03:35:56;94896.03;;;20.24;61.15
67545;BME280;54380;47.770;11.150;2023-07-13T03:38:24;94901.38;;;20.24;61.43
67545;BME280;54380;47.770;11.150;2023-07-13T03:40:52;94898.06;;;20.27;61.53
67545;BME280;54380;47.770;11.150;2023-07-13T03:43:19;94895.88;;;20.29;61.62
67545;BME280;54380;47.770;11.150;2023-07-13T03:45:46;94902.84;;;20.30;61.86
67545;BME280;54380;47.770;11.150;2023-07-13T03:48:14;94903.91;;;20.29;61.80
67545;BME280;54380;47.770;11.150;2023-07-13T03:50:40;94902.34;;;20.28;61.38
67545;BME280;54380;47.770;11.150;2023-07-13T03:53:08;94900.94;;;20.31;61.63
67545;BME280;54380;47.770;11.150;2023-07-13T03:55:35;94914.00;;;20.32;61.93
67545;BME280;54380;47.770;11.150;2023-07-13T04:00:45;94914.13;;;20.18;61.65
67545;BME280;54380;47.770;11.150;2023-07-13T04:03:12;94920.91;;;20.16;61.84
67545;BME280;54380;47.770;11.150;2023-07-13T04:05:38;94926.75;;;20.18;61.73
67545;BME280;54380;47.770;11.150;2023-07-13T04:08:06;94914.91;;;20.19;61.59
67545;BME280;54380;47.770;11.150;2023-07-13T04:10:33;94918.09;;;20.21;61.48
67545;BME280;54380;47.770;11.150;2023-07-13T04:13:00;94915.41;;;20.21;61.53
67545;BME280;54380;47.770;11.150;2023-07-13T04:15:28;94927.56;;;20.27;61.20
67545;BME280;54380;47.770;11.150;2023-07-13T04:17:57;94933.25;;;20.34;61.13
67545;BME280;54380;47.770;11.150;2023-07-13T04:20:24;94934.72;;;20.41;60.92
67545;BME280;54380;47.770;11.150;2023-07-13T04:22:51;94932.50;;;20.43;60.98
67545;BME280;54380;47.770;11.150;2023-07-13T04:25:17;94940.72;;;20.46;60.72
67545;BME280;54380;47.770;11.150;2023-07-13T04:27:44;94942.00;;;20.49;60.49
67545;BME280;54380;47.770;11.150;2023-07-13T04:30:11;94939.31;;;20.49;60.37
67545;BME280;54380;47.770;11.150;2023-07-13T04:32:37;94939.31;;;20.49;60.59
67545;BME280;54380;47.770;11.150;2023-07-13T04:35:06;94941.03;;;20.53;60.59
67545;BME280;54380;47.770;11.150;2023-07-13T04:37:33;94940.47;;;20.56;60.20
67545;BME280;54380;47.770;11.150;2023-07-13T04:39:59;94944.44;;;20.59;60.11
67545;BME280;54380;47.770;11.150;2023-07-13T04:42:26;94940.63;;;20.60;60.18
67545;BME280;54380;47.770;11.150;2023-07-13T04:44:53;94960.31;;;20.55;60.05
67545;BME280;54380;47.770;11.150;2023-07-13T04:47:19;94961.72;;;20.53;60.39
67545;BME280;54380;47.770;11.150;2023-07-13T04:49:46;94962.34;;;20.50;60.29
67545;BME280;54380;47.770;11.150;2023-07-13T04:52:14;94961.53;;;20.41;60.65
67545;BME280;54380;47.770;11.150;2023-07-13T04:54:41;94959.44;;;20.37;60.78
67545;BME280;54380;47.770;11.150;2023-07-13T04:57:07;94966.84;;;20.32;61.26
67545;BME280;54380;47.770;11.150;2023-07-13T04:59:34;94961.31;;;20.28;61.19
67545;BME280;54380;47.770;11.150;2023-07-13T05:02:01;94965.06;;;20.27;60.95
67545;BME280;54380;47.770;11.150;2023-07-13T05:04:28;94967.94;;;20.31;61.71
67545;BME280;54380;47.770;11.150;2023-07-13T05:06:54;94971.25;;;20.28;62.35
67545;BME280;54380;47.770;11.150;2023-07-13T05:09:22;94975.47;;;20.20;62.58
67545;BME280;54380;47.770;11.150;2023-07-13T05:11:49;94975.41;;;20.11;62.91
67545;BME280;54380;47.770;11.150;2023-07-13T05:14:15;94968.94;;;20.04;63.05
67545;BME280;54380;47.770;11.150;2023-07-13T05:16:42;94971.25;;;19.97;63.38
67545;BME280;54380;47.770;11.150;2023-07-13T05:19:09;94967.78;;;19.96;63.38
67545;BME280;54380;47.770;11.150;2023-07-13T05:21:36;94963.03;;;19.93;63.55
67545;BME280;54380;47.770;11.150;2023-07-13T05:24:03;94953.72;;;19.90;63.47
67545;BME280;54380;47.770;11.150;2023-07-13T05:26:50;94957.50;;;19.89;63.68
67545;BME280;54380;47.770;11.150;2023-07-13T05:29:17;94953.72;;;19.90;63.53
67545;BME280;54380;47.770;11.150;2023-07-13T05:31:43;94949.63;;;19.93;63.72
67545;BME280;54380;47.770;11.150;2023-07-13T05:34:10;94956.75;;;19.98;63.26
67545;BME280;54380;47.770;11.150;2023-07-13T05:36:36;94961.19;;;20.02;63.36
67545;BME280;54380;47.770;11.150;2023-07-13T05:39:03;94963.59;;;20.04;63.92
67545;BME280;54380;47.770;11.150;2023-07-13T05:41:30;94973.03;;;20.01;64.05
67545;BME280;54380;47.770;11.150;2023-07-13T05:43:58;94971.44;;;20.00;64.11
67545;BME280;54380;47.770;11.150;2023-07-13T05:46:25;94969.06;;;19.99;64.22
67545;BME280;54380;47.770;11.150;2023-07-13T05:48:52;94968.75;;;20.00;63.43
67545;BME280;54380;47.770;11.150;2023-07-13T05:51:19;94972.88;;;20.06;62.98
67545;BME280;54380;47.770;11.150;2023-07-13T05:53:45;94974.81;;;20.14;62.80
67545;BME280;54380;47.770;11.150;2023-07-13T05:56:12;94973.75;;;20.24;62.58
67545;BME280;54380;47.770;11.150;2023-07-13T05:58:38;94987.19;;;20.33;62.14
67545;BME280;54380;47.770;11.150;2023-07-13T06:01:08;94984.84;;;20.40;61.78
67545;BME280;54380;47.770;11.150;2023-07-13T06:03:36;94988.66;;;20.48;61.47
67545;BME280;54380;47.770;11.150;2023-07-13T06:06:07;94996.78;;;20.56;61.33
67545;BME280;54380;47.770;11.150;2023-07-13T06:08:34;95001.38;;;20.65;60.96
67545;BME280;54380;47.770;11.150;2023-07-13T06:11:01;94998.72;;;20.73;60.84
67545;BME280;54380;47.770;11.150;2023-07-13T06:13:28;94994.31;;;20.77;60.39
67545;BME280;54380;47.770;11.150;2023-07-13T06:15:55;95003.63;;;20.80;60.38
67545;BME280;54380;47.770;11.150;2023-07-13T06:18:23;95003.78;;;20.83;60.21
67545;BME280;54380;47.770;11.150;2023-07-13T06:20:50;95012.34;;;20.86;60.12
67545;BME280;54380;47.770;11.150;2023-07-13T06:23:17;95010.91;;;20.88;60.00
67545;BME280;54380;47.770;11.150;2023-07-13T06:25:43;95007.91;;;20.90;59.96
67545;BME280;54380;47.770;11.150;2023-07-13T06:28:10;95009.19;;;20.92;59.78
67545;BME280;54380;47.770;11.150;2023-07-13T06:30:37;95011.06;;;20.92;59.69
67545;BME280;54380;47.770;11.150;2023-07-13T06:33:04;95010.59;;;20.90;59.63
67545;BME280;54380;47.770;11.150;2023-07-13T06:35:32;95019.75;;;20.89;59.53
67545;BME280;54380;47.770;11.150;2023-07-13T06:37:59;95020.53;;;20.89;59.58
67545;BME280;54380;47.770;11.150;2023-07-13T06:40:25;95030.97;;;20.91;59.40
67545;BME280;54380;47.770;11.150;2023-07-13T06:42:52;95032.25;;;20.93;59.74
67545;BME280;54380;47.770;11.150;2023-07-13T06:45:18;95041.06;;;20.94;59.62
67545;BME280;54380;47.770;11.150;2023-07-13T06:47:45;95029.84;;;20.92;59.58
67545;BME280;54380;47.770;11.150;2023-07-13T06:50:12;95033.03;;;20.94;59.55
67545;BME280;54380;47.770;11.150;2023-07-13T06:52:40;95028.59;;;20.98;59.46
67545;BME280;54380;47.770;11.150;2023-07-13T06:55:07;95030.19;;;20.99;59.45
67545;BME280;54380;47.770;11.150;2023-07-13T06:57:34;95021.53;;;21.02;59.27
67545;BME280;54380;47.770;11.150;2023-07-13T07:00:01;95026.69;;;20.98;59.13
67545;BME280;54380;47.770;11.150;2023-07-13T07:02:29;95029.56;;;20.93;59.05
67545;BME280;54380;47.770;11.150;2023-07-13T07:04:55;95034.09;;;20.93;59.24
67545;BME280;54380;47.770;11.150;2023-07-13T07:07:23;95032.69;;;20.95;59.03
67545;BME280;54380;47.770;11.150;2023-07-13T07:09:51;95037.63;;;21.02;59.02
67545;BME280;54380;47.770;11.150;2023-07-13T07:12:18;95033.03;;;21.02;58.82
67545;BME280;54380;47.770;11.150;2023-07-13T07:14:44;95042.34;;;21.05;59.24
67545;BME280;54380;47.770;11.150;2023-07-13T07:17:11;95043.47;;;21.04;58.97
67545;BME280;54380;47.770;11.150;2023-07-13T07:19:38;95044.75;;;21.07;58.87
67545;BME280;54380;47.770;11.150;2023-07-13T07:22:05;95048.34;;;21.11;58.78
67545;BME280;54380;47.770;11.150;2023-07-13T07:24:31;95053.44;;;21.12;58.91
67545;BME280;54380;47.770;11.150;2023-07-13T07:26:59;95058.31;;;21.10;58.86
67545;BME280;54380;47.770;11.150;2023-07-13T07:29:29;95057.81;;;21.08;58.67
67545;BME280;54380;47.770;11.150;2023-07-13T07:31:59;95060.22;;;21.10;58.75
67545;BME280;54380;47.770;11.150;2023-07-13T07:34:32;95058.81;;;21.12;58.61
67545;BME280;54380;47.770;11.150;2023-07-13T07:36:59;95064.94;;;21.13;58.49
67545;BME280;54380;47.770;11.150;2023-07-13T07:39:29;95066.38;;;21.10;58.33
67545;BME280;54380;47.770;11.150;2023-07-13T07:41:57;95071.25;;;21.08;58.38
67545;BME280;54380;47.770;11.150;2023-07-13T07:44:25;95070.47;;;21.08;58.35
67545;BME280;54380;47.770;11.150;2023-07-13T07:46:53;95077.53;;;21.03;58.58
67545;BME280;54380;47.770;11.150;2023-07-13T07:49:20;95085.91;;;21.02;58.52
67545;BME280;54380;47.770;11.150;2023-07-13T07:51:47;95082.75;;;21.00;58.58
67545;BME280;54380;47.770;11.150;2023-07-13T07:54:14;95091.41;;;20.88;58.53
67545;BME280;54380;47.770;11.150;2023-07-13T07:56:52;95100.19;;;20.80;58.69
67545;BME280;54380;47.770;11.150;2023-07-13T07:59:21;95096.25;;;20.77;58.65
67545;BME280;54380;47.770;11.150;2023-07-13T08:01:52;95101.00;;;20.80;58.79
67545;BME280;54380;47.770;11.150;2023-07-13T08:04:22;95092.63;;;20.82;58.89
67545;BME280;54380;47.770;11.150;2023-07-13T08:06:51;95108.22;;;20.80;58.63
67545;BME280;54380;47.770;11.150;2023-07-13T08:09:18;95111.72;;;20.80;58.60
67545;BME280;54380;47.770;11.150;2023-07-13T08:11:45;95107.94;;;20.81;58.59
67545;BME280;54380;47.770;11.150;2023-07-13T08:14:14;95108.72;;;20.82;58.61
67545;BME280;54380;47.770;11.150;2023-07-13T08:16:41;95104.47;;;20.81;58.31
67545;BME280;54380;47.770;11.150;2023-07-13T08:19:09;95103.97;;;20.79;58.40
67545;BME280;54380;47.770;11.150;2023-07-13T08:21:36;95099.84;;;20.73;58.40
67545;BME280;54380;47.770;11.150;2023-07-13T08:24:03;95107.53;;;20.66;58.42
67545;BME280;54380;47.770;11.150;2023-07-13T08:26:30;95116.06;;;20.59;58.61
67545;BME280;54380;47.770;11.150;2023-07-13T08:28:56;95119.91;;;20.53;58.73
67545;BME280;54380;47.770;11.150;2023-07-13T08:31:23;95120.03;;;20.48;58.97
67545;BME280;54380;47.770;11.150;2023-07-13T08:33:50;95116.41;;;20.44;58.86
67545;BME280;54380;47.770;11.150;2023-07-13T08:36:18;95125.84;;;20.41;59.10
67545;BME280;54380;47.770;11.150;2023-07-13T08:38:44;95131.81;;;20.38;59.17
67545;BME280;54380;47.770;11.150;2023-07-13T08:41:12;95137.31;;;20.33;59.21
67545;BME280;54380;47.770;11.150;2023-07-13T08:43:40;95129.28;;;20.33;59.14
67545;BME280;54380;47.770;11.150;2023-07-13T08:46:08;95128.56;;;20.27;59.13
67545;BME280;54380;47.770;11.150;2023-07-13T08:48:36;95131.09;;;20.24;59.51
67545;BME280;54380;47.770;11.150;2023-07-13T08:51:09;95134.56;;;20.24;59.47
67545;BME280;54380;47.770;11.150;2023-07-13T08:53:39;95134.88;;;20.23;59.36
67545;BME280;54380;47.770;11.150;2023-07-13T08:56:09;95139.75;;;20.21;59.42
67545;BME280;54380;47.770;11.150;2023-07-13T08:58:37;95134.66;;;20.19;59.47
67545;BME280;54380;47.770;11.150;2023-07-13T09:01:06;95140.16;;;20.14;59.49
67545;BME280;54380;47.770;11.150;2023-07-13T09:03:38;95137.28;;;20.10;59.38
67545;BME280;54380;47.770;11.150;2023-07-13T09:06:08;95138.69;;;20.08;59.26
67545;BME280;54380;47.770;11.150;2023-07-13T09:08:45;95134.97;;;19.95;59.51
67545;BME280;54380;47.770;11.150;2023-07-13T09:11:18;95134.41;;;19.84;59.88
67545;BME280;54380;47.770;11.150;2023-07-13T09:13:52;95137.31;;;19.74;60.02
67545;BME280;54380;47.770;11.150;2023-07-13T09:16:22;95145.97;;;19.57;60.50
67545;BME280;54380;47.770;11.150;2023-07-13T09:18:50;95147.06;;;19.42;60.79
67545;BME280;54380;47.770;11.150;2023-07-13T09:21:22;95147.59;;;19.30;61.11
67545;BME280;54380;47.770;11.150;2023-07-13T09:23:52;95140.94;;;19.28;61.24
67545;BME280;54380;47.770;11.150;2023-07-13T09:26:20;95140.53;;;19.21;61.08
67545;BME280;54380;47.770;11.150;2023-07-13T09:28:48;95138.38;;;19.09;61.02
67545;BME280;54380;47.770;11.150;2023-07-13T09:31:17;95133.50;;;18.97;61.43
67545;BME280;54380;47.770;11.150;2023-07-13T09:33:45;95130.13;;;18.92;61.84
67545;BME280;54380;47.770;11.150;2023-07-13T09:36:16;95131.03;;;18.87;62.20
67545;BME280;54380;47.770;11.150;2023-07-13T09:38:43;95131.34;;;18.85;62.11
67545;BME280;54380;47.770;11.150;2023-07-13T09:41:14;95133.09;;;18.76;61.86
67545;BME280;54380;47.770;11.150;2023-07-13T09:46:27;95141.03;;;18.81;62.71
67545;BME280;54380;47.770;11.150;2023-07-13T09:48:53;95136.19;;;18.97;62.68
67545;BME280;54380;47.770;11.150;2023-07-13T09:51:22;95132.53;;;19.07;61.94
67545;BME280;54380;47.770;11.150;2023-07-13T09:53:49;95130.94;;;19.20;61.63
67545;BME280;54380;47.770;11.150;2023-07-13T09:56:21;95124.06;;;19.41;62.08
67545;BME280;54380;47.770;11.150;2023-07-13T09:58:48;95133.53;;;19.61;61.71
67545;BME280;54380;47.770;11.150;2023-07-13T10:01:16;95145.63;;;19.86;61.41
67545;BME280;54380;47.770;11.150;2023-07-13T10:03:57;95145.44;;;20.05;61.06
67545;BME280;54380;47.770;11.150;2023-07-13T10:06:24;95150.75;;;20.19;61.12
67545;BME280;54380;47.770;11.150;2023-07-13T10:08:55;95148.44;;;20.26;60.46
67545;BME280;54380;47.770;11.150;2023-07-13T10:11:27;95147.03;;;20.29;59.76
67545;BME280;54380;47.770;11.150;2023-07-13T10:13:56;95145.94;;;20.30;59.48
67545;BME280;54380;47.770;11.150;2023-07-13T10:16:23;95157.34;;;20.35;59.30
67545;BME280;54380;47.770;11.150;2023-07-13T10:18:51;95150.03;;;20.50;59.63
67545;BME280;54380;47.770;11.150;2023-07-13T10:21:20;95152.03;;;20.67;58.72
67545;BME280;54380;47.770;11.150;2023-07-13T10:23:51;95150.44;;;20.88;58.33
67545;BME280;54380;47.770;11.150;2023-07-13T10:26:21;95148.59;;;21.06;58.11
67545;BME280;54380;47.770;11.150;2023-07-13T10:28:53;95149.44;;;21.15;57.84
67545;BME280;54380;47.770;11.150;2023-07-13T10:31:21;95156.41;;;21.25;57.97
67545;BME280;54380;47.770;11.150;2023-07-13T10:33:49;95159.78;;;21.39;57.78
67545;BME280;54380;47.770;11.150;2023-07-13T10:36:18;95154.91;;;21.41;56.35
67545;BME280;54380;47.770;11.150;2023-07-13T10:38:47;95147.25;;;21.35;56.30
67545;BME280;54380;47.770;11.150;2023-07-13T10:41:17;95148.75;;;21.41;55.92
67545;BME280;54380;47.770;11.150;2023-07-13T10:43:51;95141.47;;;21.41;55.75
67545;BME280;54380;47.770;11.150;2023-07-13T10:46:21;95149.38;;;21.46;55.89
67545;BME280;54380;47.770;11.150;2023-07-13T10:48:50;95145.44;;;21.61;56.30
67545;BME280;54380;47.770;11.150;2023-07-13T10:51:19;95152.13;;;21.73;55.68
67545;BME280;54380;47.770;11.150;2023-07-13T10:56:30;95161.97;;;22.12;54.75
67545;BME280;54380;47.770;11.150;2023-07-13T10:59:05;95161.34;;;22.24;54.62
67545;BME280;54380;47.770;11.150;2023-07-13T11:01:41;95152.00;;;22.30;53.48
67545;BME280;54380;47.770;11.150;2023-07-13T11:04:16;95147.59;;;22.25;53.03
67545;BME280;54380;47.770;11.150;2023-07-13T11:06:45;95156.13;;;22.36;53.50
67545;BME280;54380;47.770;11.150;2023-07-13T11:09:28;95151.50;;;22.45;53.15
67545;BME280;54380;47.770;11.150;2023-07-13T11:11:58;95136.63;;;22.56;52.52
67545;BME280;54380;47.770;11.150;2023-07-13T11:14:34;95136.00;;;22.60;52.38
67545;BME280;54380;47.770;11.150;2023-07-13T11:17:32;95139.69;;;22.85;52.79
67545;BME280;54380;47.770;11.150;2023-07-13T11:20:10;95142.03;;;23.04;48.52
67545;BME280;54380;47.770;11.150;2023-07-13T11:22:43;95144.31;;;22.84;48.28
67545;BME280;54380;47.770;11.150;2023-07-13T11:25:21;95142.47;;;22.67;49.45
67545;BME280;54380;47.770;11.150;2023-07-13T11:28:15;95141.19;;;22.65;49.99
67545;BME280;54380;47.770;11.150;2023-07-13T11:30:44;95138.50;;;22.65;48.81
67545;BME280;54380;47.770;11.150;2023-07-13T11:33:15;95137.56;;;22.61;49.78
67545;BME280;54380;47.770;11.150;2023-07-13T11:35:45;95125.16;;;22.86;50.89
67545;BME280;54380;47.770;11.150;2023-07-13T11:38:13;95121.41;;;23.16;51.00
67545;BME280;54380;47.770;11.150;2023-07-13T11:40:41;95130.00;;;23.39;50.32
67545;BME280;54380;47.770;11.150;2023-07-13T11:43:11;95125.38;;;23.49;49.11
67545;BME280;54380;47.770;11.150;2023-07-13T11:45:39;95117.72;;;23.51;47.58
67545;BME280;54380;47.770;11.150;2023-07-13T11:48:27;95120.28;;;23.47;47.71
67545;BME280;54380;47.770;11.150;2023-07-13T11:50:55;95117.13;;;23.45;48.71
67545;BME280;54380;47.770;11.150;2023-07-13T11:53:23;95114.63;;;23.40;47.34
67545;BME280;54380;47.770;11.150;2023-07-13T11:55:52;95111.28;;;23.43;47.24
67545;BME280;54380;47.770;11.150;2023-07-13T11:58:21;95112.09;;;23.64;44.50
67545;BME280;54380;47.770;11.150;2023-07-13T12:00:51;95104.44;;;23.75;45.46
67545;BME280;54380;47.770;11.150;2023-07-13T12:03:18;95104.56;;;24.00;45.95
67545;BME280;54380;47.770;11.150;2023-07-13T12:05:58;95107.75;;;24.14;45.77
67545;BME280;54380;47.770;11.150;2023-07-13T12:08:27;95105.50;;;24.37;46.72
67545;BME280;54380;47.770;11.150;2023-07-13T12:10:58;95103.13;;;24.57;45.64
67545;BME280;54380;47.770;11.150;2023-07-13T12:13:26;95099.41;;;24.61;43.39
67545;BME280;54380;47.770;11.150;2023-07-13T12:15:53;95107.38;;;24.58;44.10
67545;BME280;54380;47.770;11.150;2023-07-13T12:18:22;95101.22;;;24.57;43.01
67545;BME280;54380;47.770;11.150;2023-07-13T12:20:53;95088.03;;;24.56;43.41
67545;BME280;54380;47.770;11.150;2023-07-13T12:23:24;95089.50;;;24.53;43.45
67545;BME280;54380;47.770;11.150;2023-07-13T12:25:52;95087.81;;;24.61;44.70
67545;BME280;54380;47.770;11.150;2023-07-13T12:28:22;95089.31;;;24.70;44.51
67545;BME280;54380;47.770;11.150;2023-07-13T12:30:49;95089.09;;;24.75;42.73
67545;BME280;54380;47.770;11.150;2023-07-13T12:33:24;95080.09;;;24.84;44.78
67545;BME280;54380;47.770;11.150;2023-07-13T12:35:54;95076.94;;;25.06;45.37
67545;BME280;54380;47.770;11.150;2023-07-13T12:38:25;95074.97;;;25.28;43.24
67545;BME280;54380;47.770;11.150;2023-07-13T12:40:51;95079.00;;;25.34;43.43
67545;BME280;54380;47.770;11.150;2023-07-13T12:43:19;95074.84;;;25.24;41.65
67545;BME280;54380;47.770;11.150;2023-07-13T12:45:57;95079.00;;;24.97;42.75
67545;BME280;54380;47.770;11.150;2023-07-13T12:48:24;95072.53;;;24.77;43.53
67545;BME280;54380;47.770;11.150;2023-07-13T12:51:12;95076.91;;;24.57;42.02
67545;BME280;54380;47.770;11.150;2023-07-13T12:53:41;95077.72;;;24.37;43.12
67545;BME280;54380;47.770;11.150;2023-07-13T12:56:09;95066.38;;;24.31;43.38
67545;BME280;54380;47.770;11.150;2023-07-13T12:58:41;95070.34;;;24.46;43.81
67545;BME280;54380;47.770;11.150;2023-07-13T13:01:10;95074.91;;;24.54;43.28
67545;BME280;54380;47.770;11.150;2023-07-13T13:03:39;95068.03;;;24.57;44.39
67545;BME280;54380;47.770;11.150;2023-07-13T13:06:19;95073.56;;;24.72;45.85
67545;BME280;54380;47.770;11.150;2023-07-13T13:08:52;95085.28;;;24.89;44.62